createdAt,value
2023-03-05T00:01:12.248Z,84.80
2023-03-05T00:03:20.642Z,85.20
2023-03-05T00:05:27.676Z,85.20
2023-03-05T00:07:34.551Z,85.10
2023-03-05T00:09:41.567Z,85.30
2023-03-05T00:11:48.604Z,85.10
2023-03-05T00:13:57.302Z,85.10
2023-03-05T00:16:06.613Z,84.70
2023-03-05T00:18:13.680Z,84.20
2023-03-05T00:20:22.449Z,84.30
2023-03-05T00:22:29.789Z,84.60
2023-03-05T00:24:36.605Z,84.10
2023-03-05T00:26:44.094Z,84.20
2023-03-05T00:28:52.758Z,84.20
2023-03-05T00:31:03.849Z,84.20
2023-03-05T00:33:11.073Z,84.10
2023-03-05T00:35:18.251Z,84.30
2023-03-05T00:37:26.612Z,84.30
2023-03-05T00:39:34.326Z,83.90
2023-03-05T00:41:41.332Z,83.90
2023-03-05T00:43:48.515Z,84.20
2023-03-05T00:45:55.235Z,84.00
2023-03-05T00:48:02.527Z,84.00
2023-03-05T00:50:10.729Z,83.60
2023-03-05T00:52:17.803Z,84.10
2023-03-05T00:54:26.268Z,84.00
2023-03-05T00:56:33.506Z,84.00
2023-03-05T00:58:40.217Z,83.60
2023-03-05T01:00:47.093Z,82.70
2023-03-05T01:02:53.914Z,82.40
2023-03-05T01:05:00.963Z,82.10
2023-03-05T01:07:08.063Z,81.10
2023-03-05T01:09:15.243Z,79.80
2023-03-05T01:11:23.755Z,81.00
2023-03-05T01:13:31.084Z,80.60
2023-03-05T01:15:38.111Z,79.20
2023-03-05T01:17:45.241Z,79.40
2023-03-05T01:19:52.167Z,79.50
2023-03-05T01:21:59.359Z,78.40
2023-03-05T01:24:06.780Z,78.70
2023-03-05T01:26:13.604Z,78.40
2023-03-05T01:28:22.220Z,78.90
2023-03-05T01:30:29.041Z,78.30
2023-03-05T01:32:36.509Z,78.30
2023-03-05T01:34:43.913Z,78.80
2023-03-05T01:36:52.073Z,77.60
2023-03-05T01:38:58.841Z,77.10
2023-03-05T01:41:05.979Z,77.50
2023-03-05T01:43:30.409Z,77.50
2023-03-05T01:45:37.626Z,76.90
2023-03-05T01:47:45.185Z,76.00
2023-03-05T01:49:52.569Z,75.10
2023-03-05T01:52:05.641Z,74.90
2023-03-05T01:54:15.020Z,75.00
2023-03-05T01:56:22.293Z,73.80
2023-03-05T01:58:31.482Z,72.40
2023-03-05T02:00:42.707Z,72.90
2023-03-05T02:02:52.040Z,72.20
2023-03-05T02:05:03.625Z,72.40
2023-03-05T02:07:11.830Z,71.20
2023-03-05T02:09:18.651Z,71.40
2023-03-05T02:11:26.041Z,70.80
2023-03-05T02:13:39.572Z,70.40
2023-03-05T02:15:48.342Z,70.40
2023-03-05T02:17:55.681Z,70.40
2023-03-05T02:20:12.798Z,70.10
2023-03-05T02:22:22.022Z,70.00
2023-03-05T02:24:40.518Z,69.70
2023-03-05T02:26:49.858Z,69.60
2023-03-05T02:28:59.951Z,69.70
2023-03-05T02:31:12.765Z,68.10
2023-03-05T02:33:21.123Z,68.10
2023-03-05T02:35:28.529Z,68.20
2023-03-05T02:37:38.250Z,66.80
2023-03-05T02:39:46.158Z,67.00
2023-03-05T02:41:53.329Z,66.80
2023-03-05T02:44:00.415Z,67.00
2023-03-05T02:46:07.880Z,66.80
2023-03-05T02:48:14.677Z,66.30
2023-03-05T02:50:22.164Z,65.90
2023-03-05T02:52:29.598Z,65.50
2023-03-05T02:54:38.200Z,65.50
2023-03-05T02:56:45.140Z,64.50
2023-03-05T02:58:52.220Z,65.00
2023-03-05T03:00:59.034Z,65.30
2023-03-05T03:03:06.025Z,64.10
2023-03-05T03:05:13.308Z,64.20
2023-03-05T03:07:20.585Z,63.20
2023-03-05T03:09:27.716Z,64.60
2023-03-05T03:11:36.539Z,63.10
2023-03-05T03:13:43.462Z,62.40
2023-03-05T03:15:50.751Z,62.70
2023-03-05T03:17:58.234Z,62.40
2023-03-05T03:20:05.989Z,62.50
2023-03-05T03:22:13.917Z,62.90
2023-03-05T03:24:20.810Z,61.90
2023-03-05T03:26:28.430Z,61.90
2023-03-05T03:28:36.796Z,61.00
2023-03-05T03:30:43.694Z,61.20
2023-03-05T03:32:50.562Z,59.80
2023-03-05T03:34:57.574Z,60.30
2023-03-05T03:37:04.570Z,59.70
2023-03-05T03:39:12.615Z,59.60
2023-03-05T03:41:20.003Z,60.00
2023-03-05T03:43:27.903Z,58.90
2023-03-05T03:45:36.315Z,59.10
2023-03-05T03:47:43.299Z,58.90
2023-03-05T03:49:50.014Z,57.80
2023-03-05T03:51:59.136Z,58.00
2023-03-05T03:54:06.267Z,58.10
2023-03-05T03:56:13.352Z,58.10
2023-03-05T03:58:20.236Z,57.80
2023-03-05T04:00:27.403Z,57.40
2023-03-05T04:02:35.934Z,57.20
2023-03-05T04:04:43.099Z,57.00
2023-03-05T04:06:49.823Z,56.80
2023-03-05T04:08:56.846Z,57.10
2023-03-05T04:11:05.207Z,56.50
2023-03-05T04:13:12.284Z,57.10
2023-03-05T04:15:18.956Z,56.00
2023-03-05T04:17:26.190Z,57.20
2023-03-05T04:19:34.803Z,57.30
2023-03-05T04:21:42.089Z,56.00
2023-03-05T04:23:48.755Z,55.90
2023-03-05T04:25:55.685Z,55.90
2023-03-05T04:28:02.503Z,55.90
2023-03-05T04:30:11.374Z,54.70
2023-03-05T04:32:24.081Z,53.90
2023-03-05T04:34:31.218Z,54.00
2023-03-05T04:36:39.776Z,53.60
2023-03-05T04:38:46.449Z,53.00
2023-03-05T04:40:53.524Z,52.60
2023-03-05T04:43:00.207Z,52.90
2023-03-05T04:45:07.779Z,51.10
2023-03-05T04:47:14.760Z,51.70
2023-03-05T04:49:21.443Z,51.80
2023-03-05T04:51:28.611Z,50.80
2023-03-05T04:53:37.179Z,51.40
2023-03-05T04:55:44.473Z,51.00
2023-03-05T04:57:51.232Z,52.50
2023-03-05T04:59:58.361Z,53.10
2023-03-05T05:02:05.290Z,51.60
2023-03-05T05:04:12.523Z,50.60
2023-03-05T05:06:19.548Z,50.80
2023-03-05T05:08:26.665Z,51.70
2023-03-05T05:10:35.447Z,50.60
2023-03-05T05:12:42.537Z,51.40
2023-03-05T05:14:49.660Z,51.30
2023-03-05T05:16:56.898Z,51.80
2023-03-05T05:19:03.895Z,51.60
2023-03-05T05:21:15.446Z,52.40
2023-03-05T05:23:22.225Z,52.60
2023-03-05T05:25:29.099Z,51.80
2023-03-05T05:27:37.616Z,51.80
2023-03-05T05:29:44.713Z,51.20
2023-03-05T05:31:51.477Z,50.30
2023-03-05T05:33:58.489Z,52.00
2023-03-05T05:36:06.800Z,50.90
2023-03-05T05:38:13.830Z,51.00
2023-03-05T05:40:20.704Z,50.00
2023-03-05T05:42:30.602Z,49.60
2023-03-05T05:44:39.015Z,49.70
2023-03-05T05:46:46.024Z,49.80
2023-03-05T05:48:53.020Z,49.30
2023-03-05T05:51:00.304Z,50.00
2023-03-05T05:53:07.282Z,50.10
2023-03-05T05:55:15.229Z,50.00
2023-03-05T05:57:22.042Z,49.70
2023-03-05T05:59:29.340Z,48.90
2023-03-05T06:01:38.399Z,48.20
2023-03-05T06:03:45.444Z,48.60
2023-03-05T06:05:52.878Z,48.70
2023-03-05T06:07:59.844Z,48.30
2023-03-05T06:10:07.140Z,49.60
2023-03-05T06:12:14.318Z,49.50
2023-03-05T06:14:20.992Z,49.10
2023-03-05T06:16:28.827Z,48.70
2023-03-05T06:18:38.374Z,48.80
2023-03-05T06:20:44.991Z,48.70
2023-03-05T06:22:51.917Z,50.10
2023-03-05T06:24:58.793Z,49.30
2023-03-05T06:27:06.487Z,49.50
2023-03-05T06:29:13.367Z,48.80
2023-03-05T06:31:22.986Z,48.60
2023-03-05T06:33:29.885Z,47.70
2023-03-05T06:35:40.454Z,50.20
2023-03-05T06:37:47.157Z,46.80
2023-03-05T06:39:54.136Z,48.20
2023-03-05T06:42:01.015Z,48.40
2023-03-05T06:44:08.394Z,47.60
2023-03-05T06:46:17.941Z,48.00
2023-03-05T06:48:25.520Z,48.00
2023-03-05T06:50:32.499Z,47.70
2023-03-05T06:52:42.056Z,47.70
2023-03-05T06:54:48.960Z,49.60
2023-03-05T06:56:55.939Z,48.00
2023-03-05T06:59:02.762Z,48.40
2023-03-05T07:01:10.412Z,48.30
2023-03-05T07:03:17.780Z,48.00
2023-03-05T07:05:24.918Z,49.00
2023-03-05T07:07:31.639Z,47.90
2023-03-05T07:09:44.043Z,47.70
2023-03-05T07:11:50.972Z,47.60
2023-03-05T07:13:57.638Z,48.20
2023-03-05T07:16:09.749Z,48.30
2023-03-05T07:18:15.790Z,47.70
2023-03-05T07:20:22.921Z,45.50
2023-03-05T07:22:29.899Z,47.30
2023-03-05T07:24:38.616Z,47.60
2023-03-05T07:26:47.403Z,47.20
2023-03-05T07:28:55.035Z,47.40
2023-03-05T07:31:03.534Z,46.80
2023-03-05T07:33:10.617Z,47.20
2023-03-05T07:35:17.344Z,46.80
2023-03-05T07:37:24.368Z,46.20
2023-03-05T07:39:31.347Z,46.60
2023-03-05T07:41:40.321Z,47.00
2023-03-05T07:43:49.611Z,46.70
2023-03-05T07:46:13.069Z,46.50
2023-03-05T07:50:44.998Z,47.20
2023-03-05T07:53:11.994Z,47.50
2023-03-05T07:55:34.936Z,48.10
2023-03-05T07:57:49.596Z,48.00
2023-03-05T08:00:15.105Z,47.10
2023-03-05T08:02:37.099Z,47.80
2023-03-05T08:04:54.968Z,46.60
2023-03-05T08:07:13.872Z,46.30
2023-03-05T08:09:33.212Z,46.90
2023-03-05T08:16:23.902Z,47.30
2023-03-05T08:18:31.357Z,48.40
2023-03-05T08:20:39.303Z,47.00
2023-03-05T08:22:46.436Z,48.00
2023-03-05T08:24:53.194Z,47.20
2023-03-05T08:27:00.695Z,47.90
2023-03-05T08:29:09.156Z,47.90
2023-03-05T08:31:17.809Z,47.40
2023-03-05T08:33:24.708Z,47.20
2023-03-05T08:35:32.263Z,47.10
2023-03-05T08:37:39.265Z,47.10
2023-03-05T08:39:46.378Z,46.60
2023-03-05T08:41:53.071Z,46.50
2023-03-05T08:44:00.051Z,47.40
2023-03-05T08:46:09.120Z,46.30
2023-03-05T08:48:16.300Z,47.60
2023-03-05T08:50:24.034Z,47.40
2023-03-05T08:52:31.124Z,48.10
2023-03-05T08:54:39.696Z,47.30
2023-03-05T08:56:47.128Z,47.00
2023-03-05T08:58:54.052Z,47.10
2023-03-05T09:01:01.232Z,47.10
2023-03-05T09:03:09.667Z,48.70
2023-03-05T09:05:16.571Z,47.80
2023-03-05T09:07:23.239Z,47.90
2023-03-05T09:09:31.086Z,47.70
2023-03-05T09:11:37.807Z,47.40
2023-03-05T09:13:45.039Z,47.20
2023-03-05T09:15:58.529Z,47.00
2023-03-05T09:18:05.546Z,47.00
2023-03-05T09:20:16.470Z,47.20
2023-03-05T09:22:23.709Z,47.10
2023-03-05T09:24:30.572Z,47.10
2023-03-05T09:26:37.753Z,47.50
2023-03-05T09:28:45.140Z,47.30
2023-03-05T09:30:52.166Z,46.60
2023-03-05T09:32:58.889Z,46.90
2023-03-05T09:35:06.127Z,47.20
2023-03-05T09:37:14.481Z,47.20
2023-03-05T09:39:21.356Z,47.60
2023-03-05T09:41:38.060Z,47.80
2023-03-05T09:43:55.330Z,48.10
2023-03-05T09:46:21.967Z,48.30
2023-03-05T09:48:41.947Z,47.60
2023-03-05T09:50:53.947Z,47.10
2023-03-05T09:53:08.024Z,47.20
2023-03-05T09:55:20.492Z,47.00
2023-03-05T09:57:32.075Z,47.10
2023-03-05T09:59:49.344Z,47.30
2023-03-05T10:01:59.188Z,47.40
2023-03-05T10:04:12.615Z,47.70
2023-03-05T10:06:24.882Z,47.60
2023-03-05T10:08:41.835Z,48.10
2023-03-05T10:10:52.542Z,48.50
2023-03-05T10:13:03.168Z,48.70
2023-03-05T10:15:17.660Z,48.60
2023-03-05T10:18:02.215Z,48.60
2023-03-05T10:20:22.665Z,48.30
2023-03-05T10:22:34.090Z,48.60
2023-03-05T10:24:50.231Z,48.70
2023-03-05T10:27:04.052Z,48.90
2023-03-05T10:29:25.997Z,49.00
2023-03-05T10:31:49.241Z,48.90
2023-03-05T10:34:10.160Z,49.30
2023-03-05T10:36:37.155Z,49.60
2023-03-05T10:39:26.882Z,49.00
2023-03-05T10:41:42.565Z,49.20
2023-03-05T10:43:57.937Z,49.50
2023-03-05T10:46:06.472Z,49.30
2023-03-05T10:48:23.110Z,49.60
2023-03-05T10:50:32.231Z,49.60
2023-03-05T10:52:47.606Z,49.80
2023-03-05T10:54:54.688Z,50.10
2023-03-05T10:57:27.061Z,50.20
2023-03-05T10:59:35.376Z,50.40
2023-03-05T11:01:42.094Z,50.60
2023-03-05T11:03:58.232Z,50.70
2023-03-05T11:06:05.969Z,50.80
2023-03-05T11:08:33.687Z,50.90
2023-03-05T11:10:40.577Z,51.20
2023-03-05T11:12:50.041Z,51.60
2023-03-05T11:15:08.740Z,52.90
2023-03-05T11:17:33.691Z,54.90
2023-03-05T11:19:40.615Z,55.80
2023-03-05T11:21:48.710Z,55.00
2023-03-05T11:24:09.210Z,55.90
2023-03-05T11:26:25.608Z,56.70
2023-03-05T11:28:36.842Z,56.80
2023-03-05T11:30:44.956Z,57.00
2023-03-05T11:32:51.663Z,57.40
2023-03-05T11:34:59.307Z,57.80
2023-03-05T11:37:09.097Z,57.60
2023-03-05T11:39:20.427Z,57.30
2023-03-05T11:41:41.533Z,57.20
2023-03-05T11:43:50.966Z,57.60
2023-03-05T11:46:03.492Z,58.00
2023-03-05T11:48:15.160Z,58.00
2023-03-05T11:50:27.417Z,57.60
2023-03-05T11:52:34.899Z,58.20
2023-03-05T11:54:51.145Z,58.80
2023-03-05T11:56:58.531Z,59.20
2023-03-05T11:59:10.120Z,59.70
2023-03-05T12:01:19.915Z,59.90
2023-03-05T12:03:32.144Z,60.20
2023-03-05T12:05:39.293Z,60.20
2023-03-05T12:07:50.575Z,61.50
2023-03-05T12:09:57.710Z,60.80
2023-03-05T12:12:11.285Z,61.40
2023-03-05T12:14:26.530Z,61.00
2023-03-05T12:16:37.941Z,62.00
2023-03-05T12:18:55.871Z,62.40
2023-03-05T12:21:10.681Z,63.10
2023-03-05T12:23:19.860Z,63.30
2023-03-05T12:25:35.029Z,63.30
2023-03-05T12:27:42.362Z,63.50
2023-03-05T12:29:53.336Z,63.30
2023-03-05T12:32:00.211Z,63.60
2023-03-05T12:34:39.652Z,63.80
2023-03-05T12:36:46.727Z,64.20
2023-03-05T12:38:54.479Z,64.20
2023-03-05T12:41:40.633Z,64.50
2023-03-05T12:43:47.335Z,64.30
2023-03-05T12:46:15.821Z,64.30
2023-03-05T12:48:47.503Z,64.70
2023-03-05T12:51:00.752Z,66.20
2023-03-05T12:53:15.355Z,65.50
2023-03-05T12:55:26.427Z,65.60
2023-03-05T12:57:34.276Z,65.80
2023-03-05T12:59:46.678Z,66.20
2023-03-05T13:02:00.315Z,66.40
2023-03-05T13:04:12.202Z,66.50
2023-03-05T13:06:31.160Z,66.20
2023-03-05T13:08:38.747Z,67.30
2023-03-05T13:10:45.722Z,66.90
2023-03-05T13:12:55.617Z,66.90
2023-03-05T13:15:07.564Z,67.00
2023-03-05T13:17:54.985Z,67.40
2023-03-05T13:20:03.752Z,68.10
2023-03-05T13:22:15.286Z,67.50
2023-03-05T13:24:23.189Z,68.10
2023-03-05T13:26:32.259Z,68.10
2023-03-05T13:28:41.055Z,68.40
2023-03-05T13:30:53.532Z,68.80
2023-03-05T13:33:05.720Z,69.20
2023-03-05T13:35:16.549Z,69.40
2023-03-05T13:37:25.061Z,70.30
2023-03-05T13:39:36.651Z,70.70
2023-03-05T13:41:43.535Z,71.20
2023-03-05T13:43:51.992Z,71.70
2023-03-05T13:45:59.643Z,71.80
2023-03-05T13:48:09.675Z,71.70
2023-03-05T13:50:28.673Z,72.30
2023-03-05T13:52:37.143Z,72.90
2023-03-05T13:54:44.988Z,72.60
2023-03-05T13:56:57.549Z,72.20
2023-03-05T13:59:04.422Z,72.10
2023-03-05T14:01:18.178Z,72.70
2023-03-05T14:03:30.463Z,74.50
2023-03-05T14:05:37.485Z,75.50
2023-03-05T14:07:45.845Z,74.40
2023-03-05T14:09:54.869Z,74.00
2023-03-05T14:12:07.177Z,73.90
2023-03-05T14:14:20.138Z,74.20
2023-03-05T14:16:33.608Z,74.90
2023-03-05T14:18:55.403Z,74.90
2023-03-05T14:21:05.746Z,75.20
2023-03-05T14:23:28.802Z,75.00
2023-03-05T14:25:39.610Z,74.10
2023-03-05T14:27:51.259Z,73.80
2023-03-05T14:29:58.386Z,73.10
2023-03-05T14:32:09.488Z,73.40
2023-03-05T14:34:27.493Z,73.60
2023-03-05T14:36:35.938Z,73.80
2023-03-05T14:38:46.418Z,73.00
2023-03-05T14:40:54.063Z,72.40
2023-03-05T14:43:02.317Z,72.30
2023-03-05T14:45:16.775Z,71.80
2023-03-05T14:47:23.911Z,72.00
2023-03-05T14:49:33.140Z,71.70
2023-03-05T14:51:43.179Z,71.40
2023-03-05T14:53:52.050Z,70.90
2023-03-05T14:55:59.900Z,70.40
2023-03-05T14:58:14.301Z,70.10
2023-03-05T15:00:23.175Z,69.80
2023-03-05T15:02:31.613Z,69.60
2023-03-05T15:04:41.580Z,69.50
2023-03-05T15:06:52.243Z,69.50
2023-03-05T15:08:59.322Z,69.30
2023-03-05T15:11:08.688Z,68.70
2023-03-05T15:13:17.318Z,67.90
2023-03-05T15:15:25.524Z,67.00
2023-03-05T15:17:38.643Z,67.10
2023-03-05T15:19:48.177Z,65.90
2023-03-05T15:21:55.308Z,65.50
2023-03-05T15:24:03.513Z,65.00
2023-03-05T15:26:12.079Z,64.90
2023-03-05T15:28:19.675Z,64.40
2023-03-05T15:30:28.540Z,64.40
2023-03-05T15:32:35.762Z,64.40
2023-03-05T15:34:42.805Z,64.30
2023-03-05T15:36:51.775Z,64.00
2023-03-05T15:38:58.905Z,64.30
2023-03-05T15:41:06.239Z,64.10
2023-03-05T15:43:13.686Z,64.60
2023-03-05T15:45:21.168Z,64.30
2023-03-05T15:47:28.349Z,64.20
2023-03-05T15:49:35.684Z,64.10
2023-03-05T15:51:42.775Z,64.10
2023-03-05T15:53:51.840Z,64.10
2023-03-05T15:55:58.867Z,64.10
2023-03-05T15:58:06.615Z,64.20
2023-03-05T16:00:16.097Z,64.10
2023-03-05T16:02:23.592Z,64.20
2023-03-05T16:04:31.282Z,65.10
2023-03-05T16:06:38.925Z,64.80
2023-03-05T16:08:46.986Z,65.30
2023-03-05T16:10:56.004Z,65.10
2023-03-05T16:13:07.024Z,65.00
2023-03-05T16:15:17.024Z,64.80
2023-03-05T16:17:25.792Z,64.70
2023-03-05T16:19:33.794Z,64.60
2023-03-05T16:21:41.036Z,64.80
2023-03-05T16:23:48.362Z,64.90
2023-03-05T16:25:58.676Z,65.00
2023-03-05T16:28:07.180Z,64.80
2023-03-05T16:30:17.334Z,64.70
2023-03-05T16:32:24.694Z,64.60
2023-03-05T16:34:31.730Z,64.90
2023-03-05T16:36:39.136Z,64.80
2023-03-05T16:38:46.163Z,64.70
2023-03-05T16:41:07.455Z,64.60
2023-03-05T16:43:16.300Z,64.50
2023-03-05T16:45:23.888Z,64.90
2023-03-05T16:47:31.024Z,64.70
2023-03-05T16:49:38.506Z,64.60
2023-03-05T16:51:45.694Z,64.70
2023-03-05T16:53:55.049Z,64.70
2023-03-05T16:56:04.020Z,65.00
2023-03-05T16:58:11.327Z,64.60
2023-03-05T17:00:23.012Z,64.90
2023-03-05T17:02:29.835Z,65.30
2023-03-05T17:04:36.865Z,65.60
2023-03-05T17:06:44.148Z,65.00
2023-03-05T17:08:52.097Z,65.10
2023-03-05T17:10:59.842Z,65.00
2023-03-05T17:13:07.442Z,65.80
2023-03-05T17:15:15.075Z,65.20
2023-03-05T17:17:24.099Z,65.10
2023-03-05T17:19:31.129Z,65.40
2023-03-05T17:21:40.005Z,65.30
2023-03-05T17:23:48.309Z,65.40
2023-03-05T17:25:55.900Z,65.00
2023-03-05T17:28:02.876Z,65.00
2023-03-05T17:30:11.492Z,64.90
2023-03-05T17:32:18.726Z,65.10
2023-03-05T17:34:35.941Z,65.10
2023-03-05T17:36:43.538Z,64.70
2023-03-05T17:38:51.123Z,64.70
2023-03-05T17:40:58.463Z,64.80
2023-03-05T17:43:06.203Z,64.70
2023-03-05T17:45:14.114Z,64.50
2023-03-05T17:47:21.436Z,64.60
2023-03-05T17:49:30.308Z,64.50
2023-03-05T17:51:38.871Z,64.50
2023-03-05T17:53:46.618Z,64.50
2023-03-05T17:55:54.059Z,64.30
2023-03-05T17:58:01.546Z,64.50
2023-03-05T18:00:10.114Z,64.70
2023-03-05T18:02:18.672Z,64.70
2023-03-05T18:04:26.427Z,65.20
2023-03-05T18:06:36.367Z,65.10
2023-03-05T18:08:43.701Z,65.10
2023-03-05T18:10:50.833Z,65.40
2023-03-05T18:12:58.062Z,65.60
2023-03-05T18:15:05.196Z,65.30
2023-03-05T18:17:12.632Z,65.10
2023-03-05T18:19:19.763Z,65.30
2023-03-05T18:21:29.247Z,65.20
2023-03-05T18:23:38.480Z,65.10
2023-03-05T18:25:46.069Z,65.30
2023-03-05T18:27:53.095Z,65.30
2023-03-05T18:30:00.484Z,65.40
2023-03-05T18:32:07.484Z,65.90
2023-03-05T18:34:14.637Z,65.90
2023-03-05T18:36:21.979Z,65.90
2023-03-05T18:38:32.543Z,66.10
2023-03-05T18:40:42.685Z,65.90
2023-03-05T18:42:49.874Z,65.70
2023-03-05T18:44:57.977Z,65.70
2023-03-05T18:47:05.610Z,65.90
2023-03-05T18:49:12.945Z,66.10
2023-03-05T18:51:22.694Z,65.60
2023-03-05T18:53:29.622Z,66.10
2023-03-05T18:55:36.947Z,66.10
2023-03-05T18:57:45.724Z,66.10
2023-03-05T18:59:53.103Z,65.90
2023-03-05T19:02:00.234Z,66.10
2023-03-05T19:04:08.348Z,66.10
2023-03-05T19:06:15.672Z,66.10
2023-03-05T19:08:23.016Z,66.30
2023-03-05T19:10:30.347Z,66.30
2023-03-05T19:12:47.306Z,66.20
2023-03-05T19:15:07.646Z,66.40
2023-03-05T19:17:14.829Z,66.10
2023-03-05T19:19:24.978Z,66.20
2023-03-05T19:21:33.337Z,66.00
2023-03-05T19:23:40.520Z,66.60
2023-03-05T19:25:48.215Z,66.40
2023-03-05T19:27:55.294Z,66.40
2023-03-05T19:30:02.988Z,66.60
2023-03-05T19:32:13.373Z,67.00
2023-03-05T19:34:21.395Z,68.50
2023-03-05T19:36:28.784Z,68.30
2023-03-05T19:38:36.170Z,68.50
2023-03-05T19:40:44.890Z,68.70
2023-03-05T19:42:51.860Z,69.00
2023-03-05T19:45:00.183Z,70.10
2023-03-05T19:47:07.608Z,70.40
2023-03-05T19:49:16.731Z,70.40
2023-03-05T19:51:24.991Z,70.50
2023-03-05T19:53:33.081Z,70.20
2023-03-05T19:55:43.654Z,70.80
2023-03-05T19:57:50.940Z,70.70
2023-03-05T19:59:57.967Z,71.30
2023-03-05T20:02:05.391Z,71.20
2023-03-05T20:04:14.312Z,71.30
2023-03-05T20:06:23.865Z,71.90
2023-03-05T20:08:30.790Z,71.60
2023-03-05T20:10:38.069Z,71.90
2023-03-05T20:12:48.737Z,72.40
2023-03-05T20:14:55.972Z,71.50
2023-03-05T20:17:03.098Z,71.60
2023-03-05T20:19:11.867Z,72.10
2023-03-05T20:21:24.224Z,72.30
2023-03-05T20:23:32.018Z,72.80
2023-03-05T20:25:41.093Z,73.20
2023-03-05T20:27:48.581Z,73.50
2023-03-05T20:29:55.712Z,73.80
2023-03-05T20:32:03.218Z,73.90
2023-03-05T20:34:11.663Z,74.40
2023-03-05T20:36:18.960Z,74.60
2023-03-05T20:38:30.534Z,75.50
2023-03-05T20:40:37.970Z,75.90
2023-03-05T20:42:45.049Z,75.60
2023-03-05T20:44:52.477Z,75.20
2023-03-05T20:47:46.042Z,75.30
2023-03-05T20:49:57.028Z,75.50
2023-03-05T20:52:03.954Z,76.20
2023-03-05T20:54:15.883Z,76.20
2023-03-05T20:56:22.873Z,76.50
2023-03-05T20:58:30.057Z,76.60
2023-03-05T21:00:37.148Z,76.80
2023-03-05T21:02:44.523Z,77.00
2023-03-05T21:04:51.607Z,77.60
2023-03-05T21:06:58.942Z,77.60
2023-03-05T21:09:06.273Z,77.90
2023-03-05T21:11:15.814Z,78.40
2023-03-05T21:13:22.845Z,78.50
2023-03-05T21:15:31.933Z,79.10
2023-03-05T21:17:39.045Z,79.00
2023-03-05T21:19:46.336Z,79.10
2023-03-05T21:21:53.461Z,79.80
2023-03-05T21:24:00.948Z,79.50
2023-03-05T21:26:08.385Z,79.40
2023-03-05T21:28:19.819Z,79.40
2023-03-05T21:30:32.423Z,79.60
2023-03-05T21:32:40.108Z,79.70
2023-03-05T21:34:47.664Z,79.50
2023-03-05T21:36:54.841Z,79.60
2023-03-05T21:39:01.872Z,79.80
2023-03-05T21:41:09.622Z,79.80
2023-03-05T21:43:19.773Z,79.90
2023-03-05T21:45:30.379Z,80.50
2023-03-05T21:47:38.074Z,80.70
2023-03-05T21:49:45.456Z,80.50
2023-03-05T21:52:10.302Z,80.70
2023-03-05T21:54:17.591Z,80.70
2023-03-05T21:56:32.084Z,80.30
2023-03-05T21:58:40.908Z,80.60
2023-03-05T22:00:48.067Z,80.90
2023-03-05T22:02:55.472Z,80.70
2023-03-05T22:05:02.548Z,80.20
2023-03-05T22:07:09.989Z,79.80
2023-03-05T22:09:17.230Z,80.00
2023-03-05T22:11:24.694Z,80.30
2023-03-05T22:13:31.633Z,80.30
2023-03-05T22:15:46.033Z,80.30
2023-03-05T22:17:53.419Z,80.20
2023-03-05T22:20:00.807Z,80.10
2023-03-05T22:22:07.884Z,80.70
2023-03-05T22:24:15.270Z,80.50
2023-03-05T22:26:22.248Z,81.00
2023-03-05T22:28:30.438Z,80.90
2023-03-05T22:30:39.344Z,81.00
2023-03-05T22:32:46.862Z,81.00
2023-03-05T22:34:57.833Z,81.30
2023-03-05T22:37:05.117Z,82.00
2023-03-05T22:39:12.184Z,82.90
2023-03-05T22:41:20.709Z,82.70
2023-03-05T22:43:27.744Z,82.70
2023-03-05T22:45:35.336Z,82.30
2023-03-05T22:47:44.251Z,82.20
2023-03-05T22:49:51.543Z,82.40
2023-03-05T22:51:58.868Z,82.20
2023-03-05T22:54:06.102Z,82.50
2023-03-05T22:56:15.129Z,82.70
2023-03-05T22:58:22.103Z,82.90
2023-03-05T23:00:29.617Z,82.70
2023-03-05T23:02:36.521Z,82.40
2023-03-05T23:04:53.691Z,82.70
2023-03-05T23:07:00.719Z,82.90
2023-03-05T23:09:08.208Z,82.80
2023-03-05T23:11:15.851Z,82.90
2023-03-05T23:13:22.986Z,82.70
2023-03-05T23:15:31.512Z,82.50
2023-03-05T23:17:39.048Z,82.40
2023-03-05T23:19:46.221Z,82.60
2023-03-05T23:21:55.402Z,82.70
2023-03-05T23:24:02.374Z,82.80
2023-03-05T23:26:09.819Z,83.00
2023-03-05T23:28:16.904Z,83.40
2023-03-05T23:30:25.252Z,83.50
2023-03-05T23:32:32.857Z,83.50
2023-03-05T23:34:40.040Z,83.60
2023-03-05T23:36:47.003Z,83.80
2023-03-05T23:38:58.635Z,83.60
2023-03-05T23:41:06.021Z,83.20
2023-03-05T23:43:13.774Z,83.60
2023-03-05T23:45:22.129Z,83.60
2023-03-05T23:47:29.818Z,83.50
2023-03-05T23:49:37.008Z,83.70
2023-03-05T23:51:44.586Z,83.50
2023-03-05T23:53:51.563Z,83.60
2023-03-05T23:56:00.797Z,83.90
2023-03-05T23:58:07.774Z,83.50
